createdAt,value
2022-10-04T00:02:15.824Z,10.29
2022-10-04T00:04:48.282Z,10.36
2022-10-04T00:07:38.345Z,10.03
2022-10-04T00:10:19.954Z,10.05
2022-10-04T00:13:02.552Z,10.00
2022-10-04T00:15:34.830Z,10.08
2022-10-04T00:18:26.173Z,10.32
2022-10-04T00:20:55.713Z,10.25
2022-10-04T00:23:25.496Z,10.27
2022-10-04T00:25:54.605Z,10.11
2022-10-04T00:28:21.361Z,10.13
2022-10-04T00:31:16.280Z,10.23
2022-10-04T00:33:50.013Z,10.02
2022-10-04T00:36:25.793Z,9.97
2022-10-04T00:39:05.008Z,10.15
2022-10-04T00:42:07.223Z,10.09
2022-10-04T00:44:43.103Z,10.11
2022-10-04T00:47:31.874Z,9.88
2022-10-04T00:50:14.436Z,10.05
2022-10-04T00:52:47.637Z,9.97
2022-10-04T00:55:33.362Z,9.96
2022-10-04T00:58:04.036Z,9.76
2022-10-04T01:00:33.491Z,9.74
2022-10-04T01:03:30.565Z,9.72
2022-10-04T01:06:02.015Z,9.91
2022-10-04T01:08:28.713Z,9.86
2022-10-04T01:11:03.715Z,9.93
2022-10-04T01:13:45.575Z,9.83
2022-10-04T01:16:19.849Z,9.92
2022-10-04T01:18:47.756Z,9.85
2022-10-04T01:21:23.526Z,9.82
2022-10-04T01:23:59.115Z,9.75
2022-10-04T01:26:34.956Z,9.82
2022-10-04T01:29:26.251Z,9.76
2022-10-04T01:31:56.128Z,9.66
2022-10-04T01:34:24.986Z,9.88
2022-10-04T01:37:00.472Z,9.73
2022-10-04T01:39:29.011Z,9.74
2022-10-04T01:41:58.466Z,9.70
2022-10-04T01:44:31.894Z,9.68
2022-10-04T01:47:03.450Z,9.72
2022-10-04T01:49:34.493Z,9.86
2022-10-04T01:52:08.755Z,9.77
2022-10-04T01:54:43.740Z,9.63
2022-10-04T01:57:16.724Z,9.80
2022-10-04T01:59:57.816Z,9.75
2022-10-04T02:02:32.549Z,9.85
2022-10-04T02:05:01.825Z,9.59
2022-10-04T02:07:32.232Z,9.69
2022-10-04T02:10:03.217Z,9.59
2022-10-04T02:12:31.773Z,9.68
2022-10-04T02:15:02.000Z,9.65
2022-10-04T02:17:32.253Z,9.77
2022-10-04T02:20:01.614Z,9.66
2022-10-04T02:22:29.076Z,9.66
2022-10-04T02:25:18.476Z,9.63
2022-10-04T02:27:45.632Z,9.44
2022-10-04T02:30:13.743Z,9.50
2022-10-04T02:32:58.176Z,9.54
2022-10-04T02:35:29.293Z,9.52
2022-10-04T02:38:06.932Z,9.41
2022-10-04T02:40:48.325Z,9.26
2022-10-04T02:43:26.553Z,9.38
2022-10-04T02:46:07.575Z,9.14
2022-10-04T02:48:54.592Z,9.59
2022-10-04T02:51:28.405Z,9.32
2022-10-04T02:54:16.887Z,9.42
2022-10-04T02:56:44.424Z,9.42
2022-10-04T02:59:16.821Z,9.35
2022-10-04T03:01:54.143Z,9.52
2022-10-04T03:04:25.726Z,9.57
2022-10-04T03:06:53.372Z,9.35
2022-10-04T03:09:27.404Z,9.41
2022-10-04T03:11:56.621Z,9.25
2022-10-04T03:14:26.845Z,9.41
2022-10-04T03:17:00.831Z,9.49
2022-10-04T03:19:30.167Z,9.35
2022-10-04T03:22:01.582Z,9.04
2022-10-04T03:24:32.662Z,9.02
2022-10-04T03:27:03.076Z,8.83
2022-10-04T03:29:32.479Z,9.28
2022-10-04T03:32:02.175Z,9.41
2022-10-04T03:34:37.354Z,9.34
2022-10-04T03:37:09.622Z,9.36
2022-10-04T03:40:03.983Z,9.13
2022-10-04T03:42:34.996Z,9.30
2022-10-04T03:45:15.802Z,9.21
2022-10-04T03:47:46.852Z,9.25
2022-10-04T03:50:19.908Z,9.21
2022-10-04T03:52:59.102Z,9.24
2022-10-04T03:55:40.432Z,9.15
2022-10-04T03:58:11.568Z,9.18
2022-10-04T04:00:44.320Z,9.08
2022-10-04T04:03:17.255Z,9.26
2022-10-04T04:05:53.585Z,9.10
2022-10-04T04:08:42.856Z,9.25
2022-10-04T04:11:19.167Z,9.13
2022-10-04T04:14:08.786Z,9.19
2022-10-04T04:16:37.280Z,9.14
2022-10-04T04:19:11.552Z,8.93
2022-10-04T04:21:38.567Z,9.16
2022-10-04T04:24:23.149Z,9.22
2022-10-04T04:27:03.364Z,9.33
2022-10-04T04:29:36.404Z,9.19
2022-10-04T04:32:13.382Z,8.83
2022-10-04T04:34:57.605Z,9.19
2022-10-04T04:37:25.043Z,9.06
2022-10-04T04:39:56.712Z,9.00
2022-10-04T04:42:35.025Z,9.12
2022-10-04T04:45:04.646Z,8.98
2022-10-04T04:47:43.788Z,8.97
2022-10-04T04:50:17.612Z,9.29
2022-10-04T04:52:59.538Z,9.36
2022-10-04T04:55:39.924Z,9.19
2022-10-04T04:58:21.724Z,9.15
2022-10-04T05:00:58.443Z,9.23
2022-10-04T05:03:33.407Z,9.25
2022-10-04T05:06:03.020Z,9.31
2022-10-04T05:08:31.879Z,9.20
2022-10-04T05:10:58.712Z,9.27
2022-10-04T05:13:33.309Z,9.05
2022-10-04T05:16:01.505Z,9.23
2022-10-04T05:18:29.903Z,9.01
2022-10-04T05:21:03.064Z,8.98
2022-10-04T05:23:29.976Z,9.24
2022-10-04T05:26:00.349Z,9.37
2022-10-04T05:28:30.077Z,9.33
2022-10-04T05:31:06.153Z,9.52
2022-10-04T05:33:45.446Z,9.55
2022-10-04T05:36:12.474Z,9.62
2022-10-04T05:39:03.875Z,9.57
2022-10-04T05:41:46.111Z,9.67
2022-10-04T05:44:47.064Z,9.62
2022-10-04T05:47:14.644Z,9.53
2022-10-04T05:49:44.464Z,9.65
2022-10-04T05:52:16.805Z,9.67
2022-10-04T05:54:43.747Z,9.58
2022-10-04T05:57:40.420Z,9.83
2022-10-04T06:00:15.600Z,9.79
2022-10-04T06:02:48.038Z,9.69
2022-10-04T06:05:18.961Z,9.67
2022-10-04T06:08:13.457Z,9.68
2022-10-04T06:10:58.533Z,9.86
2022-10-04T06:13:51.496Z,9.84
2022-10-04T06:16:54.979Z,9.82
2022-10-04T06:19:27.500Z,9.96
2022-10-04T06:22:17.113Z,9.97
2022-10-04T06:24:50.767Z,9.92
2022-10-04T06:27:36.981Z,9.95
2022-10-04T06:30:14.274Z,9.97
2022-10-04T06:32:40.904Z,10.21
2022-10-04T06:35:10.732Z,10.14
2022-10-04T06:37:37.452Z,10.04
2022-10-04T06:40:20.911Z,10.22
2022-10-04T06:42:53.663Z,10.19
2022-10-04T06:45:35.135Z,10.21
2022-10-04T06:48:32.493Z,10.28
2022-10-04T06:51:20.580Z,10.27
2022-10-04T06:54:32.192Z,10.17
2022-10-04T06:57:16.916Z,10.31
2022-10-04T07:00:09.675Z,10.32
2022-10-04T07:03:01.842Z,10.35
2022-10-04T07:05:40.115Z,10.40
2022-10-04T07:08:41.972Z,10.34
2022-10-04T07:11:17.703Z,10.37
2022-10-04T07:13:58.414Z,10.31
2022-10-04T07:16:43.342Z,10.38
2022-10-04T07:19:32.354Z,10.42
2022-10-04T07:22:05.829Z,10.51
2022-10-04T07:24:47.907Z,10.50
2022-10-04T07:27:20.378Z,10.55
2022-10-04T07:29:54.654Z,10.65
2022-10-04T07:32:28.212Z,10.69
2022-10-04T07:37:46.552Z,10.86
2022-10-04T07:40:27.467Z,10.81
2022-10-04T07:43:00.733Z,10.97
2022-10-04T07:45:40.110Z,11.02
2022-10-04T07:48:26.139Z,11.10
2022-10-04T07:51:24.337Z,11.08
2022-10-04T07:54:02.584Z,11.23
2022-10-04T07:56:41.276Z,11.28
2022-10-04T07:59:36.655Z,11.25
2022-10-04T08:02:32.893Z,11.25
2022-10-04T08:05:18.549Z,11.26
2022-10-04T08:08:24.445Z,11.32
2022-10-04T08:11:01.692Z,11.57
2022-10-04T08:14:05.961Z,11.65
2022-10-04T08:17:15.415Z,11.90
2022-10-04T08:20:19.381Z,12.03
2022-10-04T08:23:01.475Z,11.98
2022-10-04T08:25:53.124Z,12.07
2022-10-04T08:29:12.378Z,12.24
2022-10-04T08:32:05.678Z,12.47
2022-10-04T08:34:53.803Z,12.60
2022-10-04T08:37:44.595Z,12.76
2022-10-04T08:40:44.242Z,12.92
2022-10-04T08:43:22.952Z,12.92
2022-10-04T08:46:14.151Z,13.05
2022-10-04T08:49:18.694Z,13.10
2022-10-04T08:52:24.274Z,13.44
2022-10-04T08:55:20.992Z,13.48
2022-10-04T08:58:06.237Z,13.69
2022-10-04T09:00:56.860Z,13.72
2022-10-04T09:03:57.313Z,13.87
2022-10-04T09:06:49.817Z,13.89
2022-10-04T09:09:42.638Z,13.87
2022-10-04T09:12:28.115Z,13.86
2022-10-04T09:15:13.543Z,13.87
2022-10-04T09:17:55.705Z,14.02
2022-10-04T09:20:38.421Z,14.24
2022-10-04T09:23:08.761Z,14.39
2022-10-04T09:25:41.981Z,14.61
2022-10-04T09:28:40.507Z,14.60
2022-10-04T09:31:30.059Z,14.63
2022-10-04T09:34:37.535Z,14.99
2022-10-04T09:37:42.902Z,14.71
2022-10-04T09:40:22.052Z,14.62
2022-10-04T09:42:58.252Z,14.45
2022-10-04T09:45:27.639Z,14.21
2022-10-04T09:48:07.930Z,13.97
2022-10-04T09:51:08.470Z,14.11
2022-10-04T09:53:46.542Z,14.06
2022-10-04T09:56:27.021Z,14.38
2022-10-04T09:59:12.594Z,14.55
2022-10-04T10:01:56.054Z,14.56
2022-10-04T10:04:44.169Z,14.40
2022-10-04T10:07:25.838Z,14.43
2022-10-04T10:10:23.297Z,14.31
2022-10-04T10:13:22.252Z,14.69
2022-10-04T10:16:12.044Z,14.71
2022-10-04T10:18:41.736Z,14.62
2022-10-04T10:21:21.808Z,14.69
2022-10-04T10:23:48.590Z,14.95
2022-10-04T10:26:17.951Z,15.05
2022-10-04T10:29:09.324Z,14.82
2022-10-04T10:31:54.583Z,15.03
2022-10-04T10:34:39.652Z,15.10
2022-10-04T10:37:26.579Z,15.16
2022-10-04T10:40:00.503Z,15.34
2022-10-04T10:42:46.192Z,15.41
2022-10-04T10:45:28.049Z,15.20
2022-10-04T10:48:15.212Z,15.60
2022-10-04T10:51:03.699Z,15.67
2022-10-04T10:53:52.031Z,15.52
2022-10-04T10:56:30.194Z,15.56
2022-10-04T10:59:09.592Z,15.33
2022-10-04T11:02:05.885Z,15.48
2022-10-04T11:04:54.854Z,15.47
2022-10-04T11:07:55.374Z,15.56
2022-10-04T11:10:40.225Z,15.40
2022-10-04T11:13:38.337Z,15.68
2022-10-04T11:16:19.704Z,15.78
2022-10-04T11:19:19.922Z,15.95
2022-10-04T11:22:16.895Z,15.87
2022-10-04T11:25:14.136Z,16.31
2022-10-04T11:27:57.368Z,16.11
2022-10-04T11:30:39.074Z,15.90
2022-10-04T11:33:39.176Z,15.94
2022-10-04T11:36:18.614Z,15.92
2022-10-04T11:38:54.395Z,16.10
2022-10-04T11:41:23.972Z,16.17
2022-10-04T11:44:16.072Z,16.12
2022-10-04T11:47:10.160Z,15.79
2022-10-04T11:49:50.631Z,15.62
2022-10-04T11:52:49.882Z,15.80
2022-10-04T11:55:23.603Z,15.86
2022-10-04T11:57:53.476Z,15.88
2022-10-04T12:00:41.542Z,15.76
2022-10-04T12:03:44.528Z,15.57
2022-10-04T12:06:35.059Z,15.76
2022-10-04T12:09:10.747Z,15.82
2022-10-04T12:12:08.147Z,15.96
2022-10-04T12:14:34.895Z,16.20
2022-10-04T12:17:50.842Z,16.36
2022-10-04T12:20:29.362Z,16.37
2022-10-04T12:23:33.226Z,16.52
2022-10-04T12:26:32.226Z,16.51
2022-10-04T12:29:02.090Z,16.73
2022-10-04T12:31:32.135Z,16.70
2022-10-04T12:33:58.791Z,16.66
2022-10-04T12:36:30.511Z,16.91
2022-10-04T12:39:13.837Z,16.89
2022-10-04T12:41:49.621Z,17.22
2022-10-04T12:44:41.388Z,17.20
2022-10-04T12:47:42.142Z,17.34
2022-10-04T12:50:26.305Z,17.48
2022-10-04T12:53:15.695Z,17.66
2022-10-04T12:56:33.714Z,17.61
2022-10-04T12:59:15.590Z,17.60
2022-10-04T13:02:13.020Z,17.72
2022-10-04T13:05:07.962Z,17.65
2022-10-04T13:08:10.852Z,17.91
2022-10-04T13:11:07.232Z,18.03
2022-10-04T13:14:02.148Z,18.42
2022-10-04T13:17:30.925Z,18.08
2022-10-04T13:20:02.695Z,18.07
2022-10-04T13:23:03.072Z,18.08
2022-10-04T13:25:47.764Z,18.36
2022-10-04T13:28:21.696Z,18.26
2022-10-04T13:31:24.081Z,18.55
2022-10-04T13:34:09.595Z,18.70
2022-10-04T13:37:14.035Z,18.71
2022-10-04T13:40:02.124Z,18.71
2022-10-04T13:42:41.883Z,18.59
2022-10-04T13:45:20.922Z,18.40
2022-10-04T13:48:21.866Z,18.37
2022-10-04T13:51:30.429Z,18.46
2022-10-04T13:54:29.838Z,18.57
2022-10-04T13:57:22.502Z,18.54
2022-10-04T14:00:15.098Z,18.59
2022-10-04T14:02:47.712Z,18.54
2022-10-04T14:05:27.177Z,18.58
2022-10-04T14:08:28.147Z,18.71
2022-10-04T14:11:13.690Z,18.75
2022-10-04T14:14:08.582Z,18.78
2022-10-04T14:17:06.083Z,19.08
2022-10-04T14:19:41.878Z,19.24
2022-10-04T14:22:44.732Z,19.28
2022-10-04T14:25:23.626Z,19.64
2022-10-04T14:27:53.717Z,19.44
2022-10-04T14:30:26.177Z,19.62
2022-10-04T14:33:30.143Z,19.73
2022-10-04T14:36:22.901Z,19.77
2022-10-04T14:39:34.793Z,20.14
2022-10-04T14:42:19.854Z,19.96
2022-10-04T14:45:05.539Z,19.54
2022-10-04T14:48:09.448Z,19.20
2022-10-04T14:50:36.293Z,19.21
2022-10-04T14:53:22.462Z,18.89
2022-10-04T14:56:06.503Z,18.90
2022-10-04T14:59:10.288Z,18.59
2022-10-04T15:01:44.068Z,18.37
2022-10-04T15:04:29.421Z,18.22
2022-10-04T15:06:57.744Z,18.16
2022-10-04T15:09:44.215Z,18.23
2022-10-04T15:12:51.964Z,18.17
2022-10-04T15:15:14.549Z,18.07
2022-10-04T15:17:57.002Z,18.33
2022-10-04T15:20:47.566Z,17.79
2022-10-04T15:23:40.638Z,17.55
2022-10-04T15:26:19.524Z,17.30
2022-10-04T15:28:54.912Z,17.02
2022-10-04T15:31:47.310Z,16.83
2022-10-04T15:34:25.672Z,16.50
2022-10-04T15:37:17.217Z,16.44
2022-10-04T15:40:08.364Z,15.93
2022-10-04T15:42:39.851Z,15.65
2022-10-04T15:45:18.560Z,15.54
2022-10-04T15:48:10.672Z,14.95
2022-10-04T15:50:56.193Z,14.63
2022-10-04T15:53:23.582Z,14.49
2022-10-04T15:56:08.574Z,14.37
2022-10-04T15:58:39.921Z,14.21
2022-10-04T16:01:21.992Z,14.08
2022-10-04T16:04:27.148Z,13.84
2022-10-04T16:07:00.955Z,13.69
2022-10-04T16:09:47.092Z,13.48
2022-10-04T16:12:33.248Z,13.38
2022-10-04T16:15:02.865Z,13.28
2022-10-04T16:18:05.318Z,13.23
2022-10-04T16:20:51.015Z,12.98
2022-10-04T16:23:26.637Z,12.87
2022-10-04T16:26:02.292Z,12.68
2022-10-04T16:29:08.443Z,12.61
2022-10-04T16:32:05.185Z,12.49
2022-10-04T16:34:45.585Z,12.39
2022-10-04T16:37:24.352Z,12.30
2022-10-04T16:40:02.283Z,12.23
2022-10-04T16:42:50.214Z,12.10
2022-10-04T16:45:29.591Z,11.85
2022-10-04T16:48:33.782Z,11.67
2022-10-04T16:51:18.812Z,11.60
2022-10-04T16:53:53.635Z,11.49
2022-10-04T16:56:25.842Z,11.29
2022-10-04T16:59:12.236Z,11.22
2022-10-04T17:02:06.910Z,11.17
2022-10-04T17:04:36.414Z,11.05
2022-10-04T17:07:24.686Z,10.87
2022-10-04T17:10:06.692Z,10.83
2022-10-04T17:12:45.704Z,10.65
2022-10-04T17:15:14.987Z,10.70
2022-10-04T17:18:00.625Z,10.74
2022-10-04T17:20:50.008Z,10.32
2022-10-04T17:23:42.053Z,10.34
2022-10-04T17:26:26.989Z,10.46
2022-10-04T17:29:24.410Z,10.17
2022-10-04T17:32:04.592Z,10.14
2022-10-04T17:34:53.102Z,10.11
2022-10-04T17:37:47.556Z,10.04
2022-10-04T17:40:27.675Z,10.01
2022-10-04T17:43:05.359Z,9.94
2022-10-04T17:45:55.901Z,9.74
2022-10-04T17:48:50.876Z,9.67
2022-10-04T17:51:39.730Z,9.67
2022-10-04T17:54:52.145Z,9.66
2022-10-04T17:57:25.962Z,9.52
2022-10-04T18:00:10.375Z,9.42
2022-10-04T18:03:00.737Z,9.34
2022-10-04T18:05:43.078Z,9.42
2022-10-04T18:08:37.748Z,9.28
2022-10-04T18:11:33.098Z,9.14
2022-10-04T18:14:05.950Z,9.17
2022-10-04T18:16:48.135Z,9.06
2022-10-04T18:19:40.272Z,9.06
2022-10-04T18:22:16.827Z,8.97
2022-10-04T18:25:13.286Z,8.88
2022-10-04T18:28:06.834Z,8.87
2022-10-04T18:30:49.218Z,8.75
2022-10-04T18:33:25.131Z,8.68
2022-10-04T18:36:25.178Z,8.60
2022-10-04T18:39:19.753Z,8.46
2022-10-04T18:42:23.715Z,8.44
2022-10-04T18:45:02.679Z,8.34
2022-10-04T18:47:43.862Z,8.22
2022-10-04T18:50:25.194Z,8.25
2022-10-04T18:53:31.587Z,8.18
2022-10-04T18:56:13.831Z,8.17
2022-10-04T18:59:44.208Z,8.08
2022-10-04T19:03:16.675Z,8.01
2022-10-04T19:05:54.005Z,8.07
2022-10-04T19:08:40.204Z,8.02
2022-10-04T19:11:17.082Z,7.96
2022-10-04T19:14:21.872Z,7.85
2022-10-04T19:17:15.291Z,7.72
2022-10-04T19:19:51.808Z,7.71
2022-10-04T19:22:38.477Z,7.68
2022-10-04T19:25:26.989Z,7.77
2022-10-04T19:28:17.217Z,7.80
2022-10-04T19:31:08.402Z,7.55
2022-10-04T19:34:07.863Z,7.62
2022-10-04T19:36:59.155Z,7.54
2022-10-04T19:39:50.062Z,7.50
2022-10-04T19:45:26.555Z,7.32
2022-10-04T19:48:01.888Z,7.34
2022-10-04T19:50:48.628Z,7.19
2022-10-04T19:53:20.482Z,7.18
2022-10-04T19:55:58.606Z,7.19
2022-10-04T19:58:45.453Z,7.17
2022-10-04T20:01:25.164Z,7.06
2022-10-04T20:04:12.508Z,6.99
2022-10-04T20:06:51.379Z,7.01
2022-10-04T20:09:49.695Z,6.97
2022-10-04T20:12:33.210Z,6.92
2022-10-04T20:15:14.920Z,6.81
2022-10-04T20:17:47.638Z,6.81
2022-10-04T20:20:17.492Z,6.71
2022-10-04T20:22:50.427Z,6.73
2022-10-04T20:25:45.789Z,6.76
2022-10-04T20:28:28.316Z,6.73
2022-10-04T20:30:59.371Z,6.65
2022-10-04T20:33:36.931Z,6.61
2022-10-04T20:36:12.283Z,6.63
2022-10-04T20:38:50.476Z,6.56
2022-10-04T20:41:29.670Z,6.51
2022-10-04T20:44:04.588Z,6.40
2022-10-04T20:46:38.270Z,6.38
2022-10-04T20:49:14.678Z,6.32
2022-10-04T20:51:48.697Z,6.31
2022-10-04T20:54:20.244Z,6.31
2022-10-04T20:56:49.250Z,6.22
2022-10-04T20:59:18.179Z,6.27
2022-10-04T21:02:02.035Z,6.11
2022-10-04T21:04:32.483Z,6.07
2022-10-04T21:07:06.196Z,6.02
2022-10-04T21:09:34.834Z,5.91
2022-10-04T21:12:03.835Z,6.00
2022-10-04T21:14:39.666Z,5.92
2022-10-04T21:17:28.548Z,5.99
2022-10-04T21:19:55.979Z,5.90
2022-10-04T21:22:25.997Z,5.93
2022-10-04T21:24:57.675Z,5.92
2022-10-04T21:27:37.703Z,5.95
2022-10-04T21:30:13.039Z,5.87
2022-10-04T21:32:40.287Z,5.87
2022-10-04T21:35:08.530Z,5.68
2022-10-04T21:37:36.046Z,5.98
2022-10-04T21:40:03.822Z,5.99
2022-10-04T21:42:30.985Z,5.71
2022-10-04T21:44:58.020Z,5.68
2022-10-04T21:47:24.953Z,5.69
2022-10-04T21:49:52.623Z,5.74
2022-10-04T21:52:19.430Z,5.63
2022-10-04T21:54:46.231Z,5.38
2022-10-04T21:57:13.758Z,5.63
2022-10-04T21:59:40.604Z,5.46
2022-10-04T22:02:10.164Z,5.52
2022-10-04T22:04:38.441Z,5.46
2022-10-04T22:07:05.440Z,5.26
2022-10-04T22:09:33.353Z,5.52
2022-10-04T22:12:00.106Z,5.46
2022-10-04T22:14:27.034Z,5.46
2022-10-04T22:16:53.766Z,5.34
2022-10-04T22:19:20.652Z,5.31
2022-10-04T22:21:47.452Z,5.38
2022-10-04T22:24:19.421Z,5.30
2022-10-04T22:26:46.970Z,5.26
2022-10-04T22:29:16.377Z,5.28
2022-10-04T22:31:51.030Z,5.32
2022-10-04T22:34:21.010Z,5.28
2022-10-04T22:36:49.930Z,5.34
2022-10-04T22:39:21.052Z,5.33
2022-10-04T22:41:52.409Z,5.16
2022-10-04T22:44:20.671Z,5.36
2022-10-04T22:46:53.729Z,5.45
2022-10-04T22:49:23.934Z,5.45
2022-10-04T22:51:51.848Z,5.42
2022-10-04T22:54:24.748Z,5.36
2022-10-04T22:56:52.407Z,5.32
2022-10-04T22:59:20.810Z,5.27
2022-10-04T23:03:35.685Z,5.16
2022-10-04T23:06:03.244Z,5.22
2022-10-04T23:08:30.857Z,5.18
2022-10-04T23:10:59.919Z,5.17
2022-10-04T23:13:27.697Z,5.17
2022-10-04T23:16:00.402Z,5.14
2022-10-04T23:18:28.639Z,5.09
2022-10-04T23:21:01.855Z,5.10
2022-10-04T23:23:30.625Z,5.06
2022-10-04T23:25:57.414Z,5.09
2022-10-04T23:28:24.721Z,4.91
2022-10-04T23:31:11.015Z,4.89
2022-10-04T23:33:37.743Z,4.98
2022-10-04T23:36:11.862Z,4.94
2022-10-04T23:38:38.755Z,4.78
2022-10-04T23:41:11.520Z,4.91
2022-10-04T23:43:38.700Z,4.89
2022-10-04T23:46:13.751Z,4.80
2022-10-04T23:48:41.324Z,4.77
2022-10-04T23:51:12.157Z,4.51
2022-10-04T23:53:40.262Z,4.68
2022-10-04T23:56:24.513Z,4.62
2022-10-04T23:58:55.156Z,4.51
